Westland, Michigan
Current Conditions -  °F | °C
As of 2:53 PM on Sunday 23 Nov 2014 (Local Time) from KDTW Reporting Station
Overcast Overcast  
Wind Chill: 52°   Ceiling: 3000
Heat Index: 52°   Visibility: 10mi
Dew Point: 44°   Wind: 7mph
Humidity: 74%   Direction: 120°ESE
Pressure: 29.75"   Gusts: NA
Location:  42.32°N, 83.4°W
Report Text: KDTW 231953Z 12006KT 10SM BKN030 OVC120 11/07 A2975 RMK AO2 SLP076 T01110067 $
Loading
Personal Weather Stations






























Interactive Weather Map New forecast layout! Learn more

10-Day Weather Forecast

Advertisements
Track Severe Weather on mobile